createdAt,value
2022-10-18T00:00:20.471Z,0.00
2022-10-18T00:01:20.453Z,0.00
2022-10-18T00:02:20.563Z,0.00
2022-10-18T00:03:20.433Z,0.00
2022-10-18T00:04:20.413Z,0.00
2022-10-18T00:05:20.414Z,0.00
2022-10-18T00:06:20.393Z,0.00
2022-10-18T00:07:20.384Z,0.00
2022-10-18T00:08:20.392Z,0.00
2022-10-18T00:09:20.370Z,0.00
2022-10-18T00:10:20.353Z,0.00
2022-10-18T00:11:20.344Z,0.00
2022-10-18T00:12:20.333Z,0.00
2022-10-18T00:13:20.342Z,0.00
2022-10-18T00:14:20.303Z,0.00
2022-10-18T00:15:20.303Z,0.00
2022-10-18T00:16:20.285Z,0.00
2022-10-18T00:17:20.274Z,0.00
2022-10-18T00:18:20.266Z,0.00
2022-10-18T00:19:20.281Z,0.00
2022-10-18T00:20:20.244Z,0.00
2022-10-18T00:21:20.236Z,0.00
2022-10-18T00:22:20.218Z,0.00
2022-10-18T00:23:20.214Z,0.00
2022-10-18T00:24:20.203Z,0.00
2022-10-18T00:25:20.216Z,0.00
2022-10-18T00:26:20.175Z,0.00
2022-10-18T00:27:20.174Z,0.00
2022-10-18T00:28:20.157Z,0.00
2022-10-18T00:29:20.154Z,0.00
2022-10-18T00:30:20.165Z,0.00
2022-10-18T00:31:20.125Z,0.00
2022-10-18T00:32:20.115Z,0.00
2022-10-18T00:33:20.105Z,0.00
2022-10-18T00:34:20.096Z,0.00
2022-10-18T00:35:20.085Z,0.00
2022-10-18T00:36:20.095Z,0.00
2022-10-18T00:37:20.064Z,0.00
2022-10-18T00:38:20.046Z,0.00
2022-10-18T00:39:20.056Z,0.00
2022-10-18T00:40:20.027Z,0.00
2022-10-18T00:41:20.028Z,0.00
2022-10-18T00:42:20.029Z,0.00
2022-10-18T00:43:19.999Z,0.00
2022-10-18T00:44:19.990Z,0.00
2022-10-18T00:45:19.980Z,0.00
2022-10-18T00:46:19.964Z,0.00
2022-10-18T00:47:19.955Z,0.00
2022-10-18T00:48:19.975Z,0.00
2022-10-18T00:49:19.937Z,0.00
2022-10-18T00:50:19.917Z,0.00
2022-10-18T00:51:19.915Z,0.00
2022-10-18T00:52:19.897Z,0.00
2022-10-18T00:53:19.895Z,0.00
2022-10-18T00:54:19.889Z,0.00
2022-10-18T00:55:19.868Z,0.00
2022-10-18T00:56:19.856Z,0.00
2022-10-18T00:57:19.838Z,0.00
2022-10-18T00:58:19.837Z,0.00
2022-10-18T00:59:19.880Z,0.00
2022-10-18T01:00:19.808Z,0.00
2022-10-18T01:01:22.294Z,0.00
2022-10-18T01:02:19.789Z,0.00
2022-10-18T01:03:19.768Z,0.00
2022-10-18T01:04:19.768Z,0.00
2022-10-18T01:05:19.779Z,0.00
2022-10-18T01:06:19.739Z,0.00
2022-10-18T01:07:19.728Z,0.00
2022-10-18T01:08:19.719Z,0.00
2022-10-18T01:09:19.707Z,0.00
2022-10-18T01:10:19.703Z,0.00
2022-10-18T01:11:19.710Z,0.00
2022-10-18T01:12:19.677Z,0.00
2022-10-18T01:13:22.089Z,0.00
2022-10-18T01:14:20.649Z,0.00
2022-10-18T01:15:19.639Z,0.00
2022-10-18T01:16:19.630Z,0.00
2022-10-18T01:17:19.639Z,0.00
2022-10-18T01:18:19.605Z,0.00
2022-10-18T01:19:19.589Z,0.00
2022-10-18T01:20:19.580Z,0.00
2022-10-18T01:21:19.570Z,0.00
2022-10-18T01:22:19.559Z,0.00
2022-10-18T01:23:19.569Z,0.00
2022-10-18T01:24:19.530Z,0.00
2022-10-18T01:25:19.520Z,0.00
2022-10-18T01:26:19.518Z,0.00
2022-10-18T01:27:19.501Z,0.00
2022-10-18T01:28:19.491Z,0.00
2022-10-18T01:29:19.490Z,0.00
2022-10-18T01:30:19.468Z,0.00
2022-10-18T01:31:19.500Z,0.00
2022-10-18T01:32:19.451Z,0.00
2022-10-18T01:33:19.432Z,0.00
2022-10-18T01:34:19.450Z,0.00
2022-10-18T01:35:19.402Z,0.00
2022-10-18T01:36:19.402Z,0.00
2022-10-18T01:37:19.381Z,0.00
2022-10-18T01:38:19.372Z,0.00
2022-10-18T01:39:19.382Z,0.00
2022-10-18T01:40:19.381Z,0.00
2022-10-18T01:41:19.340Z,0.00
2022-10-18T01:42:19.334Z,0.00
2022-10-18T01:43:19.323Z,0.00
2022-10-18T01:44:19.312Z,0.00
2022-10-18T01:45:19.292Z,0.00
2022-10-18T01:46:19.311Z,0.00
2022-10-18T01:47:19.275Z,0.00
2022-10-18T01:48:19.263Z,0.00
2022-10-18T01:49:19.250Z,0.00
2022-10-18T01:50:19.243Z,0.00
2022-10-18T01:51:19.253Z,0.00
2022-10-18T01:52:19.232Z,0.00
2022-10-18T01:53:19.214Z,0.00
2022-10-18T01:54:19.205Z,0.00
2022-10-18T01:55:19.183Z,0.00
2022-10-18T01:56:19.172Z,0.00
2022-10-18T01:57:19.202Z,0.00
2022-10-18T01:58:19.157Z,0.00
2022-10-18T01:59:19.161Z,0.00
2022-10-18T02:00:19.162Z,0.00
2022-10-18T02:01:19.226Z,0.00
2022-10-18T02:02:19.112Z,0.00
2022-10-18T02:03:19.127Z,0.00
2022-10-18T02:04:19.087Z,0.00
2022-10-18T02:05:19.074Z,0.00
2022-10-18T02:06:19.066Z,0.00
2022-10-18T02:07:19.052Z,0.00
2022-10-18T02:08:23.386Z,0.00
2022-10-18T02:09:19.024Z,0.00
2022-10-18T02:10:19.046Z,0.00
2022-10-18T02:11:19.006Z,0.00
2022-10-18T02:12:18.997Z,0.00
2022-10-18T02:13:18.983Z,0.00
2022-10-18T02:14:18.994Z,0.00
2022-10-18T02:15:18.963Z,0.00
2022-10-18T02:16:18.953Z,0.00
2022-10-18T02:17:18.945Z,0.00
2022-10-18T02:18:18.925Z,0.00
2022-10-18T02:19:19.000Z,0.00
2022-10-18T02:20:18.937Z,0.00
2022-10-18T02:21:18.896Z,0.00
2022-10-18T02:22:18.885Z,0.00
2022-10-18T02:23:18.875Z,0.00
2022-10-18T02:24:18.865Z,0.00
2022-10-18T02:25:18.847Z,0.00
2022-10-18T02:26:18.858Z,0.00
2022-10-18T02:27:18.824Z,0.00
2022-10-18T02:28:18.887Z,0.00
2022-10-18T02:29:18.801Z,0.00
2022-10-18T02:30:18.796Z,0.00
2022-10-18T02:31:18.776Z,0.00
2022-10-18T02:32:19.596Z,0.00
2022-10-18T02:33:18.756Z,0.00
2022-10-18T02:34:18.746Z,0.00
2022-10-18T02:35:18.727Z,0.00
2022-10-18T02:36:18.726Z,0.00
2022-10-18T02:37:18.770Z,0.00
2022-10-18T02:38:18.725Z,0.00
2022-10-18T02:39:18.685Z,0.00
2022-10-18T02:40:18.676Z,0.00
2022-10-18T02:41:18.666Z,0.00
2022-10-18T02:42:18.656Z,0.00
2022-10-18T02:43:18.638Z,0.00
2022-10-18T02:44:18.650Z,0.00
2022-10-18T02:45:18.618Z,0.00
2022-10-18T02:46:18.667Z,0.00
2022-10-18T02:47:18.598Z,0.00
2022-10-18T02:48:18.589Z,0.00
2022-10-18T02:49:18.597Z,0.00
2022-10-18T02:50:18.566Z,0.00
2022-10-18T02:51:18.570Z,0.00
2022-10-18T02:52:18.538Z,0.00
2022-10-18T02:53:18.526Z,0.00
2022-10-18T02:54:18.534Z,0.00
2022-10-18T02:55:18.585Z,0.00
2022-10-18T02:56:18.498Z,0.00
2022-10-18T02:57:18.481Z,0.00
2022-10-18T02:58:18.472Z,0.00
2022-10-18T02:59:18.458Z,0.00
2022-10-18T03:00:18.489Z,0.00
2022-10-18T03:01:18.476Z,0.00
2022-10-18T03:02:18.429Z,0.00
2022-10-18T03:03:18.408Z,0.00
2022-10-18T03:04:18.504Z,0.00
2022-10-18T03:05:18.392Z,0.00
2022-10-18T03:06:18.380Z,0.00
2022-10-18T03:07:18.380Z,0.00
2022-10-18T03:08:18.359Z,0.00
2022-10-18T03:09:18.360Z,0.00
2022-10-18T03:10:18.339Z,0.00
2022-10-18T03:11:18.319Z,0.00
2022-10-18T03:12:18.310Z,0.00
2022-10-18T03:13:18.369Z,0.00
2022-10-18T03:14:18.290Z,0.00
2022-10-18T03:15:18.271Z,0.00
2022-10-18T03:16:18.268Z,0.00
2022-10-18T03:17:18.252Z,0.00
2022-10-18T03:18:18.240Z,0.00
2022-10-18T03:19:18.240Z,0.00
2022-10-18T03:20:18.232Z,0.00
2022-10-18T03:21:18.210Z,0.00
2022-10-18T03:22:18.220Z,0.00
2022-10-18T03:23:18.192Z,0.00
2022-10-18T03:24:18.200Z,0.00
2022-10-18T03:25:18.160Z,0.00
2022-10-18T03:26:18.151Z,0.00
2022-10-18T03:27:18.141Z,0.00
2022-10-18T03:28:18.131Z,0.00
2022-10-18T03:29:18.119Z,0.00
2022-10-18T03:30:18.131Z,0.00
2022-10-18T03:31:18.141Z,0.00
2022-10-18T03:32:18.085Z,0.00
2022-10-18T03:33:18.073Z,0.00
2022-10-18T03:34:18.061Z,0.00
2022-10-18T03:35:18.050Z,0.00
2022-10-18T03:36:18.063Z,0.00
2022-10-18T03:37:18.025Z,0.00
2022-10-18T03:38:18.020Z,0.00
2022-10-18T03:39:18.001Z,0.00
2022-10-18T03:40:18.056Z,0.00
2022-10-18T03:41:18.003Z,0.00
2022-10-18T03:42:17.971Z,0.00
2022-10-18T03:43:17.953Z,0.00
2022-10-18T03:44:17.953Z,0.00
2022-10-18T03:45:17.932Z,0.00
2022-10-18T03:46:17.923Z,0.00
2022-10-18T03:47:17.931Z,0.00
2022-10-18T03:48:17.903Z,0.00
2022-10-18T03:49:17.890Z,0.00
2022-10-18T03:50:17.882Z,0.00
2022-10-18T03:51:17.863Z,0.00
2022-10-18T03:52:17.884Z,0.00
2022-10-18T03:53:17.842Z,0.00
2022-10-18T03:54:17.833Z,0.00
2022-10-18T03:55:17.824Z,0.00
2022-10-18T03:56:17.822Z,0.00
2022-10-18T03:57:17.793Z,0.00
2022-10-18T03:58:17.804Z,0.00
2022-10-18T03:59:17.773Z,0.00
2022-10-18T04:00:24.813Z,0.00
2022-10-18T04:01:17.785Z,0.00
2022-10-18T04:02:17.744Z,0.00
2022-10-18T04:03:17.755Z,0.00
2022-10-18T04:04:17.726Z,0.00
2022-10-18T04:05:17.711Z,0.00
2022-10-18T04:06:17.695Z,0.00
2022-10-18T04:07:17.684Z,0.00
2022-10-18T04:08:17.675Z,0.00
2022-10-18T04:09:17.676Z,0.00
2022-10-18T04:10:17.653Z,0.00
2022-10-18T04:11:17.634Z,0.00
2022-10-18T04:12:17.626Z,0.00
2022-10-18T04:13:17.615Z,0.00
2022-10-18T04:14:17.625Z,0.00
2022-10-18T04:15:17.594Z,0.00
2022-10-18T04:16:17.596Z,0.00
2022-10-18T04:17:17.577Z,0.00
2022-10-18T04:18:17.559Z,0.00
2022-10-18T04:19:17.563Z,0.00
2022-10-18T04:20:17.556Z,0.00
2022-10-18T04:21:17.525Z,0.00
2022-10-18T04:22:17.517Z,0.00
2022-10-18T04:23:17.505Z,0.00
2022-10-18T04:24:17.495Z,0.00
2022-10-18T04:25:17.481Z,0.00
2022-10-18T04:26:17.486Z,0.00
2022-10-18T04:27:17.458Z,0.00
2022-10-18T04:28:17.447Z,0.00
2022-10-18T04:29:17.436Z,0.00
2022-10-18T04:30:17.427Z,0.00
2022-10-18T04:31:17.435Z,0.00
2022-10-18T04:32:17.396Z,0.00
2022-10-18T04:33:17.405Z,0.00
2022-10-18T04:34:17.385Z,0.00
2022-10-18T04:35:17.365Z,0.00
2022-10-18T04:36:17.357Z,0.00
2022-10-18T04:37:17.365Z,0.00
2022-10-18T04:38:17.337Z,0.00
2022-10-18T04:39:17.319Z,0.00
2022-10-18T04:40:17.307Z,0.00
2022-10-18T04:41:17.296Z,0.00
2022-10-18T04:42:17.288Z,0.00
2022-10-18T04:43:17.296Z,0.00
2022-10-18T04:44:17.267Z,0.00
2022-10-18T04:45:17.247Z,0.00
2022-10-18T04:46:17.259Z,0.00
2022-10-18T04:47:17.228Z,0.00
2022-10-18T04:48:17.221Z,0.00
2022-10-18T04:49:17.228Z,0.00
2022-10-18T04:50:17.199Z,0.00
2022-10-18T04:51:17.181Z,0.00
2022-10-18T04:52:17.177Z,0.00
2022-10-18T04:53:17.160Z,0.00
2022-10-18T04:54:17.149Z,0.00
2022-10-18T04:55:17.158Z,0.00
2022-10-18T04:56:17.129Z,0.00
2022-10-18T04:57:17.119Z,0.00
2022-10-18T04:58:17.108Z,0.00
2022-10-18T04:59:17.090Z,0.00
2022-10-18T05:00:17.080Z,0.00
2022-10-18T05:01:17.136Z,0.00
2022-10-18T05:02:17.072Z,0.00
2022-10-18T05:03:17.057Z,0.00
2022-10-18T05:04:17.039Z,0.00
2022-10-18T05:05:17.029Z,0.00
2022-10-18T05:06:17.038Z,0.00
2022-10-18T05:07:17.001Z,0.00
2022-10-18T05:08:16.992Z,0.00
2022-10-18T05:09:16.984Z,0.00
2022-10-18T05:10:16.971Z,0.00
2022-10-18T05:11:16.959Z,0.00
2022-10-18T05:12:16.962Z,0.00
2022-10-18T05:13:16.937Z,0.00
2022-10-18T05:14:16.921Z,0.00
2022-10-18T05:15:16.911Z,0.00
2022-10-18T05:16:16.951Z,0.00
2022-10-18T05:17:16.910Z,0.00
2022-10-18T05:18:16.871Z,0.00
2022-10-18T05:19:16.870Z,0.00
2022-10-18T05:20:16.859Z,0.00
2022-10-18T05:21:16.843Z,0.00
2022-10-18T05:22:16.840Z,0.00
2022-10-18T05:23:16.839Z,0.00
2022-10-18T05:24:16.803Z,0.00
2022-10-18T05:25:16.805Z,0.00
2022-10-18T05:26:16.782Z,0.00
2022-10-18T05:27:16.786Z,0.00
2022-10-18T05:28:38.167Z,0.00
2022-10-18T05:29:17.847Z,0.00
2022-10-18T05:30:16.748Z,0.00
2022-10-18T05:31:16.736Z,0.00
2022-10-18T05:32:16.725Z,0.00
2022-10-18T05:33:16.711Z,0.00
2022-10-18T05:34:16.712Z,0.00
2022-10-18T05:35:16.691Z,0.00
2022-10-18T05:36:16.676Z,0.00
2022-10-18T05:37:16.683Z,0.00
2022-10-18T05:38:16.654Z,0.00
2022-10-18T05:39:16.675Z,0.00
2022-10-18T05:40:16.635Z,0.00
2022-10-18T05:41:16.615Z,0.00
2022-10-18T05:42:16.603Z,0.00
2022-10-18T05:43:16.593Z,0.00
2022-10-18T05:44:16.583Z,0.00
2022-10-18T05:45:16.593Z,0.00
2022-10-18T05:46:16.554Z,0.00
2022-10-18T05:47:16.574Z,0.00
2022-10-18T05:48:16.534Z,0.00
2022-10-18T05:49:16.527Z,0.00
2022-10-18T05:50:16.512Z,0.00
2022-10-18T05:51:16.529Z,5.62
2022-10-18T05:52:16.483Z,5.62
2022-10-18T05:53:31.825Z,5.62
2022-10-18T05:54:17.465Z,5.62
2022-10-18T05:55:16.456Z,5.62
2022-10-18T05:56:16.474Z,5.62
2022-10-18T05:57:16.459Z,5.62
2022-10-18T05:58:16.423Z,5.62
2022-10-18T05:59:16.414Z,5.62
2022-10-18T06:00:16.397Z,5.62
2022-10-18T06:01:16.392Z,11.25
2022-10-18T06:02:16.423Z,11.25
2022-10-18T06:03:16.385Z,11.25
2022-10-18T06:04:16.353Z,11.25
2022-10-18T06:05:16.355Z,11.25
2022-10-18T06:06:16.325Z,11.25
2022-10-18T06:07:16.327Z,11.25
2022-10-18T06:08:16.305Z,11.25
2022-10-18T06:09:16.315Z,11.25
2022-10-18T06:10:16.276Z,11.25
2022-10-18T06:11:16.276Z,16.88
2022-10-18T06:12:16.259Z,16.88
2022-10-18T06:13:16.254Z,16.88
2022-10-18T06:14:16.267Z,16.88
2022-10-18T06:15:16.226Z,16.88
2022-10-18T06:16:16.286Z,16.88
2022-10-18T06:17:16.205Z,16.88
2022-10-18T06:18:16.196Z,16.88
2022-10-18T06:19:16.186Z,16.88
2022-10-18T06:20:16.185Z,16.88
2022-10-18T06:21:16.157Z,22.50
2022-10-18T06:22:16.290Z,22.50
2022-10-18T06:23:16.147Z,22.50
2022-10-18T06:24:16.118Z,22.50
2022-10-18T06:25:16.136Z,22.50
2022-10-18T06:26:16.098Z,28.12
2022-10-18T06:27:16.098Z,28.12
2022-10-18T06:28:16.077Z,22.50
2022-10-18T06:29:16.073Z,22.50
2022-10-18T06:30:16.057Z,22.50
2022-10-18T06:31:16.077Z,16.88
2022-10-18T06:32:16.027Z,16.88
2022-10-18T06:33:16.028Z,22.50
2022-10-18T06:34:16.019Z,22.50
2022-10-18T06:35:15.998Z,22.50
2022-10-18T06:36:15.987Z,22.50
2022-10-18T06:37:16.007Z,22.50
2022-10-18T06:38:15.969Z,22.50
2022-10-18T06:39:15.958Z,28.12
2022-10-18T06:40:15.948Z,28.12
2022-10-18T06:41:15.938Z,28.12
2022-10-18T06:42:18.005Z,33.75
2022-10-18T06:43:21.207Z,33.75
2022-10-18T06:44:16.898Z,39.38
2022-10-18T06:45:15.890Z,45.00
2022-10-18T06:46:15.870Z,50.62
2022-10-18T06:47:15.867Z,56.25
2022-10-18T06:48:15.893Z,61.88
2022-10-18T06:49:18.308Z,73.12
2022-10-18T06:50:15.821Z,78.75
2022-10-18T06:51:15.829Z,84.38
2022-10-18T06:52:15.808Z,95.62
2022-10-18T06:53:15.809Z,95.62
2022-10-18T06:54:18.499Z,95.62
2022-10-18T06:55:15.795Z,95.62
2022-10-18T06:56:15.764Z,95.62
2022-10-18T06:57:15.780Z,95.62
2022-10-18T06:58:15.740Z,95.62
2022-10-18T06:59:15.730Z,101.25
2022-10-18T07:00:15.752Z,101.25
2022-10-18T07:01:15.784Z,106.88
2022-10-18T07:02:15.699Z,106.88
2022-10-18T07:03:15.681Z,106.88
2022-10-18T07:04:15.687Z,112.50
2022-10-18T07:05:15.662Z,112.50
2022-10-18T07:06:15.661Z,118.12
2022-10-18T07:07:15.642Z,123.75
2022-10-18T07:08:15.631Z,123.75
2022-10-18T07:09:15.623Z,123.75
2022-10-18T07:10:15.602Z,112.50
2022-10-18T07:11:15.663Z,106.88
2022-10-18T07:12:15.582Z,95.62
2022-10-18T07:13:31.627Z,90.00
2022-10-18T07:14:16.669Z,90.00
2022-10-18T07:15:15.552Z,84.38
2022-10-18T07:16:18.157Z,84.38
2022-10-18T07:17:15.552Z,84.38
2022-10-18T07:18:15.512Z,84.38
2022-10-18T07:19:15.546Z,84.38
2022-10-18T07:20:15.492Z,84.38
2022-10-18T07:21:15.573Z,90.00
2022-10-18T07:22:15.473Z,101.25
2022-10-18T07:23:15.483Z,101.25
2022-10-18T07:24:15.453Z,106.88
2022-10-18T07:25:15.434Z,106.88
2022-10-18T07:26:15.425Z,112.50
2022-10-18T07:27:15.417Z,118.12
2022-10-18T07:28:15.404Z,118.12
2022-10-18T07:29:15.645Z,123.75
2022-10-18T07:30:15.401Z,123.75
2022-10-18T07:31:15.373Z,118.12
2022-10-18T07:32:15.364Z,106.88
2022-10-18T07:33:15.354Z,101.25
2022-10-18T07:34:15.355Z,90.00
2022-10-18T07:35:15.328Z,84.38
2022-10-18T07:36:15.334Z,84.38
2022-10-18T07:37:15.308Z,84.38
2022-10-18T07:38:15.333Z,90.00
2022-10-18T07:39:15.284Z,90.00
2022-10-18T07:40:15.293Z,95.62
2022-10-18T07:41:15.264Z,101.25
2022-10-18T07:42:15.253Z,106.88
2022-10-18T07:43:15.247Z,112.50
2022-10-18T07:44:15.229Z,123.75
2022-10-18T07:45:15.230Z,135.00
2022-10-18T07:46:15.258Z,140.62
2022-10-18T07:47:15.210Z,146.25
2022-10-18T07:48:15.216Z,140.62
2022-10-18T07:49:15.177Z,135.00
2022-10-18T07:50:15.159Z,135.00
2022-10-18T07:51:15.156Z,140.62
2022-10-18T07:52:15.155Z,151.88
2022-10-18T07:53:15.125Z,174.38
2022-10-18T07:54:15.118Z,196.88
2022-10-18T07:55:15.107Z,213.75
2022-10-18T07:56:15.095Z,230.62
2022-10-18T07:57:15.147Z,241.88
2022-10-18T07:58:15.074Z,247.50
2022-10-18T07:59:15.067Z,247.50
2022-10-18T08:00:15.047Z,247.50
2022-10-18T08:01:15.098Z,253.12
2022-10-18T08:02:15.028Z,253.12
2022-10-18T08:03:15.047Z,253.12
2022-10-18T08:04:16.505Z,230.62
2022-10-18T08:05:15.032Z,202.50
2022-10-18T08:06:15.027Z,180.00
2022-10-18T08:07:14.999Z,168.75
2022-10-18T08:08:14.968Z,163.12
2022-10-18T08:09:14.979Z,157.50
2022-10-18T08:10:14.968Z,146.25
2022-10-18T08:11:14.937Z,146.25
2022-10-18T08:12:14.918Z,151.88
2022-10-18T08:13:14.908Z,135.00
2022-10-18T08:14:14.949Z,123.75
2022-10-18T08:15:14.907Z,106.88
2022-10-18T08:16:14.898Z,101.25
2022-10-18T08:17:14.908Z,95.62
2022-10-18T08:18:14.878Z,90.00
2022-10-18T08:19:14.869Z,90.00
2022-10-18T08:20:29.841Z,78.75
2022-10-18T08:21:15.819Z,78.75
2022-10-18T08:22:14.819Z,84.38
2022-10-18T08:23:14.809Z,95.62
2022-10-18T08:24:15.069Z,106.88
2022-10-18T08:25:14.779Z,118.12
2022-10-18T08:26:14.801Z,123.75
2022-10-18T08:27:14.760Z,129.38
2022-10-18T08:28:14.751Z,135.00
2022-10-18T08:29:23.287Z,140.62
2022-10-18T08:30:15.751Z,146.25
2022-10-18T08:31:14.730Z,146.25
2022-10-18T08:32:14.718Z,146.25
2022-10-18T08:33:14.699Z,140.62
2022-10-18T08:34:18.724Z,140.62
2022-10-18T08:35:15.670Z,135.00
2022-10-18T08:36:14.660Z,118.12
2022-10-18T08:37:14.741Z,95.62
2022-10-18T08:38:18.034Z,84.38
2022-10-18T08:39:14.621Z,84.38
2022-10-18T08:40:14.614Z,84.38
2022-10-18T08:41:14.661Z,90.00
2022-10-18T08:42:14.592Z,90.00
2022-10-18T08:43:17.019Z,90.00
2022-10-18T08:44:15.572Z,95.62
2022-10-18T08:45:30.285Z,106.88
2022-10-18T08:46:15.553Z,123.75
2022-10-18T08:47:14.541Z,129.38
2022-10-18T08:48:14.532Z,129.38
2022-10-18T08:49:14.532Z,123.75
2022-10-18T08:50:14.525Z,140.62
2022-10-18T08:51:14.512Z,174.38
2022-10-18T08:52:14.482Z,213.75
2022-10-18T08:53:14.485Z,241.88
2022-10-18T08:54:14.525Z,264.38
2022-10-18T08:55:14.452Z,275.62
2022-10-18T08:56:14.450Z,281.25
2022-10-18T08:57:14.422Z,275.62
2022-10-18T08:58:14.413Z,270.00
2022-10-18T08:59:14.403Z,258.75
2022-10-18T09:00:14.453Z,264.38
2022-10-18T09:01:14.385Z,258.75
2022-10-18T09:02:14.393Z,264.38
2022-10-18T09:03:14.408Z,270.00
2022-10-18T09:04:14.395Z,275.62
2022-10-18T09:05:14.366Z,286.88
2022-10-18T09:06:14.324Z,298.12
2022-10-18T09:07:14.314Z,309.38
2022-10-18T09:08:14.304Z,326.25
2022-10-18T09:09:14.294Z,337.50
2022-10-18T09:10:14.285Z,354.38
2022-10-18T09:11:14.294Z,371.25
2022-10-18T09:12:14.264Z,399.38
2022-10-18T09:13:14.257Z,433.12
2022-10-18T09:14:14.245Z,495.00
2022-10-18T09:15:14.247Z,573.75
2022-10-18T09:16:14.215Z,663.75
2022-10-18T09:17:16.133Z,691.88
2022-10-18T09:18:14.226Z,736.88
2022-10-18T09:19:14.198Z,742.50
2022-10-18T09:20:14.184Z,742.50
2022-10-18T09:21:14.195Z,720.00
2022-10-18T09:22:14.160Z,697.50
2022-10-18T09:23:14.158Z,669.38
2022-10-18T09:24:14.131Z,652.50
2022-10-18T09:25:14.118Z,635.62
2022-10-18T09:26:14.126Z,624.38
2022-10-18T09:27:14.086Z,590.62
2022-10-18T09:28:14.106Z,562.50
2022-10-18T09:29:14.167Z,556.88
2022-10-18T09:30:14.066Z,585.00
2022-10-18T09:31:14.047Z,607.50
2022-10-18T09:32:14.037Z,607.50
2022-10-18T09:33:14.028Z,579.38
2022-10-18T09:34:14.037Z,534.38
2022-10-18T09:35:14.011Z,495.00
2022-10-18T09:36:13.996Z,466.88
2022-10-18T09:37:14.017Z,450.00
2022-10-18T09:38:14.094Z,438.75
2022-10-18T09:39:13.964Z,433.12
2022-10-18T09:40:16.655Z,433.12
2022-10-18T09:41:14.938Z,450.00
2022-10-18T09:42:13.929Z,455.62
2022-10-18T09:43:13.928Z,444.38
2022-10-18T09:44:13.900Z,438.75
2022-10-18T09:45:13.888Z,444.38
2022-10-18T09:46:13.919Z,438.75
2022-10-18T09:47:16.865Z,416.25
2022-10-18T09:48:13.874Z,399.38
2022-10-18T09:49:15.688Z,421.88
2022-10-18T09:50:13.839Z,478.12
2022-10-18T09:51:13.821Z,523.12
2022-10-18T09:52:13.830Z,551.25
2022-10-18T09:53:13.800Z,545.62
2022-10-18T09:54:13.813Z,511.88
2022-10-18T09:55:13.780Z,461.25
2022-10-18T09:56:13.772Z,433.12
2022-10-18T09:57:13.779Z,444.38
2022-10-18T09:58:13.750Z,495.00
2022-10-18T09:59:13.750Z,573.75
2022-10-18T10:00:20.775Z,613.12
2022-10-18T10:01:13.716Z,635.62
2022-10-18T10:02:13.736Z,652.50
2022-10-18T10:03:13.706Z,708.75
2022-10-18T10:04:13.687Z,736.88
2022-10-18T10:05:13.688Z,669.38
2022-10-18T10:06:13.657Z,590.62
2022-10-18T10:07:13.646Z,573.75
2022-10-18T10:08:13.637Z,551.25
2022-10-18T10:09:13.662Z,523.12
2022-10-18T10:10:13.625Z,489.38
2022-10-18T10:11:13.607Z,478.12
2022-10-18T10:12:13.597Z,444.38
2022-10-18T10:13:13.579Z,438.75
2022-10-18T10:14:13.632Z,433.12
2022-10-18T10:15:13.587Z,444.38
2022-10-18T10:16:13.548Z,461.25
2022-10-18T10:17:13.528Z,461.25
2022-10-18T10:18:13.528Z,478.12
2022-10-18T10:19:13.509Z,523.12
2022-10-18T10:20:13.499Z,562.50
2022-10-18T10:21:13.518Z,573.75
2022-10-18T10:22:13.489Z,585.00
2022-10-18T10:23:13.508Z,652.50
2022-10-18T10:24:13.459Z,731.25
2022-10-18T10:25:13.450Z,776.25
2022-10-18T10:26:13.440Z,804.38
2022-10-18T10:27:13.440Z,832.50
2022-10-18T10:28:13.418Z,832.50
2022-10-18T10:29:17.517Z,832.50
2022-10-18T10:30:14.436Z,821.25
2022-10-18T10:31:13.379Z,770.62
2022-10-18T10:32:13.416Z,686.25
2022-10-18T10:33:13.391Z,607.50
2022-10-18T10:34:13.351Z,540.00
2022-10-18T10:35:22.606Z,517.50
2022-10-18T10:36:14.330Z,523.12
2022-10-18T10:37:13.311Z,545.62
2022-10-18T10:38:13.321Z,590.62
2022-10-18T10:39:13.291Z,635.62
2022-10-18T10:40:18.196Z,646.88
2022-10-18T10:41:14.270Z,618.75
2022-10-18T10:42:13.262Z,596.25
2022-10-18T10:43:32.865Z,601.88
2022-10-18T10:44:14.253Z,607.50
2022-10-18T10:45:13.224Z,596.25
2022-10-18T10:46:13.273Z,528.75
2022-10-18T10:47:13.205Z,461.25
2022-10-18T10:48:13.192Z,421.88
2022-10-18T10:49:38.383Z,421.88
2022-10-18T10:50:14.173Z,416.25
2022-10-18T10:51:13.155Z,388.12
2022-10-18T10:52:26.412Z,388.12
2022-10-18T10:53:14.135Z,393.75
2022-10-18T10:54:13.133Z,405.00
2022-10-18T10:55:30.772Z,455.62
2022-10-18T10:56:15.865Z,517.50
2022-10-18T10:57:13.093Z,478.12
2022-10-18T10:58:13.086Z,450.00
2022-10-18T10:59:13.088Z,438.75
2022-10-18T11:00:13.095Z,421.88
2022-10-18T11:01:13.066Z,427.50
2022-10-18T11:02:13.036Z,455.62
2022-10-18T11:03:27.934Z,528.75
2022-10-18T11:04:14.078Z,545.62
2022-10-18T11:05:13.003Z,585.00
2022-10-18T11:06:13.765Z,568.12
2022-10-18T11:07:12.986Z,579.38
2022-10-18T11:08:12.977Z,585.00
2022-10-18T11:09:12.968Z,596.25
2022-10-18T11:10:13.040Z,596.25
2022-10-18T11:11:12.935Z,596.25
2022-10-18T11:12:12.962Z,601.88
2022-10-18T11:13:12.917Z,618.75
2022-10-18T11:14:25.300Z,618.75
2022-10-18T11:15:13.895Z,613.12
2022-10-18T11:16:12.877Z,618.75
2022-10-18T11:17:12.869Z,607.50
2022-10-18T11:18:12.896Z,630.00
2022-10-18T11:19:12.865Z,641.25
2022-10-18T11:20:12.854Z,658.12
2022-10-18T11:21:12.828Z,669.38
2022-10-18T11:22:12.817Z,675.00
2022-10-18T11:23:12.798Z,680.62
2022-10-18T11:24:12.816Z,703.12
2022-10-18T11:25:12.779Z,708.75
2022-10-18T11:26:12.780Z,714.38
2022-10-18T11:27:12.760Z,703.12
2022-10-18T11:28:12.769Z,720.00
2022-10-18T11:29:12.765Z,770.62
2022-10-18T11:30:12.730Z,810.00
2022-10-18T11:31:12.712Z,815.62
2022-10-18T11:32:12.709Z,781.88
2022-10-18T11:33:12.691Z,781.88
2022-10-18T11:34:12.680Z,804.38
2022-10-18T11:35:12.688Z,815.62
2022-10-18T11:36:12.702Z,855.00
2022-10-18T11:37:28.573Z,781.88
2022-10-18T11:38:13.641Z,675.00
2022-10-18T11:39:12.622Z,613.12
2022-10-18T11:40:12.621Z,579.38
2022-10-18T11:41:12.623Z,568.12
2022-10-18T11:42:12.591Z,562.50
2022-10-18T11:43:12.579Z,556.88
2022-10-18T11:44:12.571Z,568.12
2022-10-18T11:45:12.552Z,590.62
2022-10-18T11:46:12.542Z,590.62
2022-10-18T11:47:12.582Z,596.25
2022-10-18T11:48:12.523Z,613.12
2022-10-18T11:49:12.511Z,646.88
2022-10-18T11:50:12.501Z,669.38
2022-10-18T11:51:12.485Z,663.75
2022-10-18T11:52:12.503Z,601.88
2022-10-18T11:53:12.463Z,534.38
2022-10-18T11:54:12.474Z,534.38
2022-10-18T11:55:12.443Z,545.62
2022-10-18T11:56:12.442Z,528.75
2022-10-18T11:57:12.427Z,461.25
2022-10-18T11:58:12.435Z,405.00
2022-10-18T11:59:12.395Z,376.88
2022-10-18T12:00:12.406Z,354.38
2022-10-18T12:01:12.379Z,348.75
2022-10-18T12:02:12.410Z,371.25
2022-10-18T12:03:12.414Z,393.75
2022-10-18T12:04:12.367Z,427.50
2022-10-18T12:05:22.966Z,455.62
2022-10-18T12:06:13.327Z,489.38
2022-10-18T12:07:12.307Z,517.50
2022-10-18T12:08:12.306Z,540.00
2022-10-18T12:09:12.306Z,534.38
2022-10-18T12:10:12.282Z,534.38
2022-10-18T12:11:12.267Z,517.50
2022-10-18T12:12:12.268Z,500.62
2022-10-18T12:13:12.247Z,495.00
2022-10-18T12:14:12.239Z,489.38
2022-10-18T12:15:12.237Z,489.38
2022-10-18T12:16:12.209Z,483.75
2022-10-18T12:17:40.728Z,466.88
2022-10-18T12:18:13.218Z,450.00
2022-10-18T12:19:12.182Z,438.75
2022-10-18T12:20:12.189Z,433.12
2022-10-18T12:21:12.158Z,421.88
2022-10-18T12:22:12.150Z,410.62
2022-10-18T12:23:12.136Z,388.12
2022-10-18T12:24:12.125Z,348.75
2022-10-18T12:25:12.109Z,320.62
2022-10-18T12:26:12.121Z,309.38
2022-10-18T12:27:12.088Z,309.38
2022-10-18T12:28:12.081Z,275.62
2022-10-18T12:29:12.071Z,264.38
2022-10-18T12:30:12.058Z,270.00
2022-10-18T12:31:12.039Z,292.50
2022-10-18T12:32:12.049Z,286.88
2022-10-18T12:33:27.290Z,286.88
2022-10-18T12:34:13.010Z,241.88
2022-10-18T12:35:11.998Z,275.62
2022-10-18T12:36:11.993Z,225.00
2022-10-18T12:37:12.002Z,225.00
2022-10-18T12:38:11.970Z,202.50
2022-10-18T12:39:11.958Z,191.25
2022-10-18T12:40:14.556Z,196.88
2022-10-18T12:41:12.948Z,196.88
2022-10-18T12:42:11.922Z,191.25
2022-10-18T12:43:11.940Z,191.25
2022-10-18T12:44:11.901Z,191.25
2022-10-18T12:45:11.894Z,202.50
2022-10-18T12:46:13.835Z,213.75
2022-10-18T12:47:11.876Z,225.00
2022-10-18T12:48:11.853Z,241.88
2022-10-18T12:49:11.856Z,253.12
2022-10-18T12:50:11.832Z,253.12
2022-10-18T12:51:11.822Z,247.50
2022-10-18T12:52:11.813Z,241.88
2022-10-18T12:53:11.801Z,230.62